Time;durP1;ratioP1;P1;durP2;ratioP2;P2;SDS_P1;SDS_P2;PMS_P1;PMS_P2;Temp;Humidity;BMP_temperature;BMP_pressure;BME280_temperature;BME280_humidity;BME280_pressure;Samples;Min_cycle;Max_cycle;Signal;HPM_P1;HPM_P2
2023/04/04 05:59:53;;;;;;;23.83;3.42;;;13.10;59.10;;;;;;4858917;29;20557;-72
2023/04/04 06:02:19;;;;;;;25.13;3.72;;;13.10;57.70;;;;;;4862697;29;20065;-76
2023/04/04 06:04:45;;;;;;;30.52;4.78;;;13.20;58.70;;;;;;4862041;29;20457;-72
2023/04/04 06:07:10;;;;;;;39.53;4.95;;;13.30;58.90;;;;;;4862749;29;20449;-73
2023/04/04 06:09:37;;;;;;;26.60;3.70;;;13.40;59.00;;;;;;4862331;29;20049;-71
2023/04/04 06:12:03;;;;;;;30.52;4.47;;;13.50;58.80;;;;;;4862656;29;20138;-72
2023/04/04 06:14:32;;;;;;;27.73;4.03;;;13.50;58.90;;;;;;4865097;29;20045;-76
2023/04/04 06:16:58;;;;;;;22.15;3.15;;;13.60;58.90;;;;;;4865300;29;20064;-72
2023/04/04 06:19:23;;;;;;;20.67;3.03;;;13.70;58.50;;;;;;4866189;29;20349;-73
2023/04/04 06:21:49;;;;;;;27.60;4.32;;;13.80;58.20;;;;;;4866667;29;20048;-72
2023/04/04 06:24:15;;;;;;;13.70;2.78;;;13.80;58.00;;;;;;4866341;29;20401;-73
2023/04/04 06:26:41;;;;;;;16.15;3.10;;;13.90;57.90;;;;;;4866663;29;20050;-74
2023/04/04 06:29:07;;;;;;;22.30;3.60;;;13.90;57.60;;;;;;4866049;29;20049;-72
2023/04/04 06:31:33;;;;;;;13.88;2.28;;;14.00;57.50;;;;;;4866294;29;20053;-72
2023/04/04 06:34:00;;;;;;;19.55;2.97;;;14.00;57.30;;;;;;4866861;29;20053;-73
2023/04/04 06:36:26;;;;;;;12.40;2.47;;;14.00;57.20;;;;;;4866026;29;20097;-73
2023/04/04 06:38:51;;;;;;;13.43;2.70;;;14.10;57.00;;;;;;4865512;29;20065;-73
2023/04/04 06:41:17;;;;;;;16.17;2.95;;;14.20;56.80;;;;;;4866312;29;20057;-73
2023/04/04 06:43:45;;;;;;;13.27;2.67;;;14.20;56.70;;;;;;4849929;29;20152;-73
2023/04/04 06:46:11;;;;;;;10.70;2.05;;;14.20;56.50;;;;;;4865908;29;20132;-74
2023/04/04 06:48:37;;;;;;;6.38;1.50;;;14.30;56.30;;;;;;4864995;29;20042;-73
2023/04/04 06:51:06;;;;;;;9.50;1.83;;;14.40;56.20;;;;;;4865819;29;20113;-73
2023/04/04 06:53:33;;;;;;;6.35;1.65;;;14.40;56.00;;;;;;4865566;29;20045;-72
2023/04/04 06:55:59;;;;;;;8.70;1.40;;;14.50;55.90;;;;;;4865771;29;20132;-74
2023/04/04 06:58:25;;;;;;;6.47;1.85;;;14.50;55.70;;;;;;4865307;29;20065;-74
2023/04/04 07:00:51;;;;;;;8.45;1.70;;;14.60;55.70;;;;;;4865315;29;20057;-73
2023/04/04 07:03:16;;;;;;;12.48;1.85;;;14.60;55.60;;;;;;4865289;29;20056;-73
2023/04/04 07:05:42;;;;;;;10.48;1.70;;;14.60;55.50;;;;;;4866056;29;20104;-73
2023/04/04 07:08:08;;;;;;;10.00;1.90;;;14.60;55.40;;;;;;4865135;29;20068;-73
2023/04/04 07:10:34;;;;;;;11.23;1.33;;;14.70;55.50;;;;;;4865336;29;20112;-72
2023/04/04 07:13:00;;;;;;;6.03;1.58;;;14.70;55.40;;;;;;4865400;29;20125;-75
2023/04/04 07:15:26;;;;;;;10.10;2.35;;;14.70;55.40;;;;;;4865246;29;20381;-73
2023/04/04 07:17:53;;;;;;;9.13;1.63;;;14.80;55.40;;;;;;4857409;29;20613;-73
2023/04/04 07:20:18;;;;;;;10.65;1.48;;;14.90;55.50;;;;;;4861000;29;20057;-73
2023/04/04 07:22:45;;;;;;;11.85;1.67;;;14.90;54.80;;;;;;4861474;29;20052;-73
2023/04/04 07:25:12;;;;;;;10.48;1.50;;;14.90;55.40;;;;;;4864513;29;20439;-76
2023/04/04 07:27:39;;;;;;;12.75;2.10;;;15.00;55.50;;;;;;4875664;29;20480;-77
2023/04/04 07:30:07;;;;;;;9.27;1.70;;;15.00;55.40;;;;;;4865160;29;20127;-77
2023/04/04 07:32:33;;;;;;;6.22;1.30;;;15.00;55.40;;;;;;4865102;29;20136;-78
2023/04/04 07:34:58;;;;;;;7.22;1.63;;;15.10;55.50;;;;;;4864614;29;20045;-77
2023/04/04 07:37:25;;;;;;;8.38;1.75;;;15.10;55.50;;;;;;4864312;29;20129;-76
2023/04/04 07:39:51;;;;;;;7.15;1.90;;;15.10;55.40;;;;;;4864895;29;20075;-78
2023/04/04 07:42:21;;;;;;;8.38;1.55;;;15.20;55.50;;;;;;4864830;29;20440;-77
2023/04/04 07:44:51;;;;;;;10.20;1.58;;;15.20;55.40;;;;;;4863675;29;20061;-78
2023/04/04 07:47:17;;;;;;;10.88;1.45;;;15.30;55.20;;;;;;4864971;29;20061;-77
2023/04/04 07:49:43;;;;;;;6.15;1.40;;;15.30;55.10;;;;;;4864752;29;20053;-79
2023/04/04 07:52:09;;;;;;;11.70;1.52;;;15.30;55.00;;;;;;4864990;29;20046;-77
2023/04/04 07:54:35;;;;;;;7.88;1.75;;;15.40;55.10;;;;;;4864743;29;20123;-77
2023/04/04 07:57:04;;;;;;;9.20;1.77;;;15.40;54.90;;;;;;4864810;29;20457;-77
2023/04/04 07:59:33;;;;;;;5.60;1.35;;;15.40;54.80;;;;;;4864377;29;20080;-77
2023/04/04 08:01:58;;;;;;;6.43;1.35;;;15.40;54.70;;;;;;4864382;29;20060;-78
2023/04/04 08:04:24;;;;;;;5.13;1.20;;;15.40;54.50;;;;;;4863903;29;20053;-77
2023/04/04 08:06:50;;;;;;;5.70;1.65;;;15.50;54.50;;;;;;4864565;29;20045;-76
2023/04/04 08:09:16;;;;;;;4.95;1.42;;;15.50;54.40;;;;;;4863584;29;20053;-76
2023/04/04 08:11:42;;;;;;;6.15;1.33;;;15.50;54.40;;;;;;4878754;29;20364;-76
2023/04/04 08:14:10;;;;;;;2.55;1.17;;;15.50;54.30;;;;;;4863919;29;20042;-79
2023/04/04 08:16:37;;;;;;;5.03;1.45;;;15.60;54.60;;;;;;4864323;29;20049;-80
2023/04/04 08:19:03;;;;;;;5.60;0.98;;;15.60;55.00;;;;;;4864615;29;20057;-77
2023/04/04 08:21:29;;;;;;;4.65;1.17;;;15.60;55.30;;;;;;4864350;29;20050;-83
2023/04/04 08:23:55;;;;;;;2.83;1.38;;;15.60;56.50;;;;;;4848140;29;20354;-78
2023/04/04 08:26:21;;;;;;;4.65;1.40;;;15.60;56.00;;;;;;4864433;29;20149;-75
2023/04/04 08:28:47;;;;;;;4.47;1.40;;;15.60;56.80;;;;;;4864095;29;20056;-81
2023/04/04 08:31:13;;;;;;;7.47;1.20;;;15.60;58.50;;;;;;4863517;29;20469;-78
2023/04/04 08:33:39;;;;;;;3.80;1.27;;;15.60;57.30;;;;;;4863968;29;20052;-74
2023/04/04 08:36:05;;;;;;;2.20;1.33;;;15.60;59.00;;;;;;4863508;29;20042;-76
2023/04/04 08:38:30;;;;;;;5.88;0.98;;;15.60;60.00;;;;;;4863408;29;20113;-81
2023/04/04 08:40:57;;;;;;;4.50;0.90;;;15.60;59.00;;;;;;4862852;29;20048;-75
2023/04/04 08:43:25;;;;;;;4.63;1.35;;;15.60;58.90;;;;;;4863979;29;20061;-75
2023/04/04 08:45:53;;;;;;;2.92;1.10;;;15.70;59.70;;;;;;4863907;29;20057;-77
2023/04/04 08:48:20;;;;;;;3.33;0.98;;;15.70;59.70;;;;;;4863783;29;20045;-80
2023/04/04 08:50:47;;;;;;;3.17;1.10;;;15.70;59.20;;;;;;4863847;29;20128;-77
2023/04/04 08:53:14;;;;;;;1.95;0.70;;;15.70;59.50;;;;;;4863849;29;20053;-77
2023/04/04 08:55:41;;;;;;;3.67;0.90;;;15.70;59.00;;;;;;4863467;29;20093;-79
2023/04/04 08:58:08;;;;;;;4.45;1.30;;;15.70;58.20;;;;;;4878407;29;20368;-78
2023/04/04 09:00:33;;;;;;;3.63;1.20;;;15.70;59.10;;;;;;4863483;29;20129;-80
2023/04/04 09:03:23;;;;;;;2.67;0.68;;;15.70;59.80;;;;;;4863198;29;20129;-78
2023/04/04 09:05:49;;;;;;;2.88;0.90;;;15.70;59.20;;;;;;4862883;29;20057;-82
2023/04/04 09:08:17;;;;;;;4.10;1.15;;;15.70;59.70;;;;;;4862710;29;20065;-80
2023/04/04 09:10:44;;;;;;;4.40;0.93;;;15.60;59.90;;;;;;4862725;29;20057;-79
2023/04/04 09:13:10;;;;;;;3.92;1.17;;;15.70;59.50;;;;;;4865733;29;20088;-83
2023/04/04 09:15:40;;;;;;;2.78;0.90;;;15.60;59.50;;;;;;4872725;29;20106;-75
2023/04/04 09:18:05;;;;;;;3.90;0.77;;;15.60;59.30;;;;;;4847161;29;20065;-79
2023/04/04 09:20:40;;;;;;;3.03;1.00;;;15.60;59.20;;;;;;4879354;29;20037;-78
2023/04/04 09:23:08;;;;;;;8.90;1.13;;;15.60;59.10;;;;;;4881146;29;20055;-76
2023/04/04 09:25:36;;;;;;;5.18;1.20;;;15.60;58.80;;;;;;4866834;29;20072;-77
2023/04/04 09:28:05;;;;;;;3.47;0.93;;;15.60;58.90;;;;;;4881459;29;20443;-78
2023/04/04 09:30:37;;;;;;;2.65;0.68;;;15.60;59.20;;;;;;4869804;29;20049;-81
2023/04/04 09:33:08;;;;;;;3.17;1.08;;;15.60;58.20;;;;;;4863238;29;20430;-79
2023/04/04 09:35:36;;;;;;;2.88;0.98;;;15.50;57.80;;;;;;4863183;29;20045;-79
2023/04/04 09:38:04;;;;;;;4.13;0.98;;;15.50;58.20;;;;;;4860879;29;20067;-78
2023/04/04 09:40:30;;;;;;;4.78;0.82;;;15.50;57.50;;;;;;4862970;29;20060;-78
2023/04/04 09:43:00;;;;;;;3.78;0.85;;;15.40;57.20;;;;;;4862554;29;20049;-81
2023/04/04 09:45:26;;;;;;;5.68;1.20;;;15.40;57.10;;;;;;4862935;29;20072;-79
2023/04/04 09:47:52;;;;;;;6.65;1.67;;;15.30;56.50;;;;;;4861144;29;20045;-74
2023/04/04 09:50:23;;;;;;;7.80;2.05;;;15.30;55.50;;;;;;4862327;29;20049;-77
2023/04/04 09:52:50;;;;;;;7.85;1.95;;;15.30;54.40;;;;;;4844413;29;20342;-76
2023/04/04 09:55:17;;;;;;;4.78;1.80;;;15.20;54.10;;;;;;4844599;29;20076;-78
2023/04/04 09:57:45;;;;;;;12.32;1.77;;;15.20;54.10;;;;;;4856992;29;20350;-76
2023/04/04 10:00:18;;;;;;;5.57;1.40;;;15.10;54.10;;;;;;4862873;29;20461;-77
2023/04/04 10:02:48;;;;;;;5.63;1.58;;;15.00;54.20;;;;;;4863044;29;20063;-76
2023/04/04 10:05:14;;;;;;;10.43;1.85;;;15.00;54.40;;;;;;4862902;29;20338;-77
2023/04/04 10:07:42;;;;;;;4.30;1.83;;;15.00;54.40;;;;;;4861215;29;20054;-75
2023/04/04 10:10:09;;;;;;;5.70;1.98;;;14.90;54.40;;;;;;4862467;29;20046;-75
2023/04/04 10:12:38;;;;;;;3.05;1.38;;;14.90;55.00;;;;;;4861568;29;20128;-76
2023/04/04 10:15:04;;;;;;;4.15;1.08;;;14.90;55.50;;;;;;4862686;29;20491;-74
2023/04/04 10:17:40;;;;;;;6.28;1.45;;;14.80;55.80;;;;;;4862033;29;20134;-76
2023/04/04 10:20:08;;;;;;;4.07;1.60;;;14.80;56.20;;;;;;4862591;29;20057;-75
2023/04/04 10:22:35;;;;;;;5.10;1.40;;;14.80;56.40;;;;;;4862564;29;20075;-75
2023/04/04 10:25:02;;;;;;;4.45;1.15;;;14.70;56.50;;;;;;4862544;29;20057;-74
2023/04/04 10:27:28;;;;;;;5.32;1.48;;;14.70;56.70;;;;;;4862254;29;20061;-77
2023/04/04 10:29:54;;;;;;;8.35;1.50;;;14.70;56.90;;;;;;4862005;29;20118;-76
2023/04/04 10:32:43;;;;;;;4.18;1.00;;;14.70;57.00;;;;;;4862002;29;20054;-75
2023/04/04 10:35:11;;;;;;;4.47;0.90;;;14.60;57.00;;;;;;4862621;29;20458;-75
2023/04/04 10:37:51;;;;;;;6.97;1.17;;;14.60;57.10;;;;;;4862049;29;20057;-78
2023/04/04 10:40:20;;;;;;;5.60;1.30;;;14.60;57.10;;;;;;4862865;29;20081;-77
2023/04/04 10:42:48;;;;;;;4.25;0.75;;;14.60;57.10;;;;;;4862390;29;20046;-75
2023/04/04 10:45:15;;;;;;;3.25;1.10;;;14.60;57.10;;;;;;4862562;29;20057;-76
2023/04/04 10:47:43;;;;;;;4.65;0.90;;;14.60;57.10;;;;;;4861612;29;20217;-73
2023/04/04 10:50:11;;;;;;;4.95;1.08;;;14.60;57.10;;;;;;4862597;29;20469;-75
2023/04/04 10:52:39;;;;;;;2.80;0.63;;;14.60;56.70;;;;;;4862101;29;20469;-76
2023/04/04 10:55:08;;;;;;;8.10;1.17;;;14.60;56.80;;;;;;4862451;29;20387;-75
2023/04/04 10:57:37;;;;;;;7.90;0.85;;;14.60;57.30;;;;;;4861737;29;20060;-78
2023/04/04 11:00:11;;;;;;;6.03;1.33;;;14.60;57.70;;;;;;4862954;29;20065;-75
2023/04/04 11:02:53;;;;;;;11.07;1.23;;;14.60;58.20;;;;;;4849347;29;20064;-75
2023/04/04 11:05:29;;;;;;;4.25;1.15;;;14.50;58.80;;;;;;4864190;29;20053;-75
2023/04/04 11:08:00;;;;;;;6.15;1.30;;;14.60;58.20;;;;;;4848648;29;20100;-76
2023/04/04 11:10:31;;;;;;;5.28;1.10;;;14.60;57.50;;;;;;4865279;29;20509;-80
2023/04/04 11:13:11;;;;;;;12.15;1.77;;;14.60;58.80;;;;;;4849528;29;20140;-79
2023/04/04 11:15:57;;;;;;;6.10;1.17;;;14.60;59.00;;;;;;4865745;29;20053;-76
2023/04/04 11:18:44;;;;;;;9.73;1.75;;;14.60;60.60;;;;;;4864950;29;20069;-77
2023/04/04 11:21:26;;;;;;;6.80;1.58;;;14.70;59.40;;;;;;4865697;29;20406;-75
2023/04/04 11:23:59;;;;;;;8.77;1.45;;;14.70;59.10;;;;;;4832068;29;20473;-75
2023/04/04 11:26:25;;;;;;;5.78;1.42;;;14.70;59.10;;;;;;4846894;29;20058;-76
2023/04/04 11:28:50;;;;;;;6.80;1.00;;;14.70;59.00;;;;;;4847008;29;20068;-76
2023/04/04 11:31:17;;;;;;;13.13;2.22;;;14.70;59.30;;;;;;4865531;29;20057;-75
2023/04/04 11:33:55;;;;;;;7.78;1.65;;;14.70;59.20;;;;;;4865382;29;20122;-75
2023/04/04 11:36:36;;;;;;;4.32;1.08;;;14.70;59.30;;;;;;4865280;29;20049;-82
2023/04/04 11:39:18;;;;;;;13.45;1.50;;;14.70;59.20;;;;;;4862662;29;20465;-82
2023/04/04 11:42:05;;;;;;;10.43;1.60;;;14.70;59.10;;;;;;4848351;29;20069;-79
2023/04/04 11:44:40;;;;;;;10.18;2.28;;;14.70;58.10;;;;;;4838169;29;20049;-83
2023/04/04 11:47:05;;;;;;;9.50;2.42;;;14.70;57.20;;;;;;4847887;29;20053;-81
2023/04/04 11:49:42;;;;;;;6.05;1.95;;;14.60;56.60;;;;;;4848029;29;20050;-75
2023/04/04 11:52:10;;;;;;;12.15;2.28;;;14.60;55.40;;;;;;4864597;29;20092;-74
2023/04/04 11:54:37;;;;;;;11.70;2.35;;;14.50;54.90;;;;;;4864174;29;20064;-75
2023/04/04 11:57:06;;;;;;;5.28;1.77;;;14.50;54.70;;;;;;4864240;29;20456;-75
2023/04/04 11:59:32;;;;;;;6.57;1.58;;;14.50;54.70;;;;;;4863898;29;20158;-78
2023/04/04 12:02:00;;;;;;;10.02;2.40;;;14.50;54.80;;;;;;4864343;29;20136;-75
2023/04/04 12:04:26;;;;;;;10.13;2.00;;;14.50;55.00;;;;;;4848176;29;20130;-75
2023/04/04 12:06:53;;;;;;;7.40;1.90;;;14.50;55.20;;;;;;4863870;29;20041;-75
2023/04/04 12:09:22;;;;;;;6.63;1.70;;;14.50;55.00;;;;;;4864467;29;20064;-76
2023/04/04 12:11:48;;;;;;;6.35;1.42;;;14.50;55.30;;;;;;4864136;29;20049;-76
2023/04/04 12:14:16;;;;;;;5.00;1.15;;;14.50;55.70;;;;;;4863701;29;20092;-75
2023/04/04 12:16:43;;;;;;;6.03;1.45;;;14.40;55.80;;;;;;4864179;29;20041;-77
2023/04/04 12:19:10;;;;;;;4.30;1.40;;;14.40;56.00;;;;;;4864462;29;20365;-75
2023/04/04 12:21:36;;;;;;;3.55;1.20;;;14.40;56.20;;;;;;4864304;29;20045;-75
2023/04/04 12:24:02;;;;;;;3.72;0.93;;;14.30;56.40;;;;;;4864032;29;20050;-78
2023/04/04 12:26:28;;;;;;;4.28;1.08;;;14.30;56.60;;;;;;4863814;29;20052;-76
2023/04/04 12:28:58;;;;;;;6.75;1.30;;;14.30;56.50;;;;;;4863840;29;20467;-80
2023/04/04 12:31:28;;;;;;;2.45;1.20;;;14.30;56.60;;;;;;4832382;29;20528;-76
2023/04/04 12:33:54;;;;;;;6.90;1.10;;;14.40;56.90;;;;;;4863863;29;20058;-76
2023/04/04 12:36:20;;;;;;;9.63;1.42;;;14.30;56.90;;;;;;4847442;29;20045;-75
2023/04/04 12:38:59;;;;;;;11.25;1.38;;;14.40;56.90;;;;;;4863229;29;20081;-78
2023/04/04 12:41:27;;;;;;;8.27;1.92;;;14.30;56.80;;;;;;4847908;29;20414;-77
2023/04/04 12:44:03;;;;;;;8.15;2.67;;;14.40;55.80;;;;;;4863750;29;20042;-78
2023/04/04 12:46:40;;;;;;;7.30;2.75;;;14.40;52.80;;;;;;4863916;29;20385;-75
2023/04/04 12:49:09;;;;;;;9.82;2.72;;;14.40;50.90;;;;;;4863562;29;20054;-75
2023/04/04 12:51:37;;;;;;;7.45;2.45;;;14.40;49.70;;;;;;4864082;29;20057;-80
2023/04/04 12:54:06;;;;;;;10.82;2.45;;;14.30;49.40;;;;;;4862215;29;20053;-75
2023/04/04 12:56:34;;;;;;;8.13;2.28;;;14.30;49.40;;;;;;4846766;29;20045;-75
2023/04/04 12:59:02;;;;;;;8.27;2.40;;;14.20;49.70;;;;;;4850795;29;20050;-75
2023/04/04 13:01:30;;;;;;;10.02;2.35;;;14.30;50.30;;;;;;4863482;29;20057;-76
2023/04/04 13:03:58;;;;;;;11.02;2.70;;;14.30;50.30;;;;;;4861773;29;20051;-78
2023/04/04 13:06:31;;;;;;;3.88;2.65;;;14.30;49.50;;;;;;4860718;29;20053;-75
2023/04/04 13:08:57;;;;;;;4.78;2.20;;;14.30;48.90;;;;;;4849847;29;20060;-77
2023/04/04 13:11:24;;;;;;;11.18;2.35;;;14.30;48.80;;;;;;4862455;29;20071;-79
2023/04/04 13:14:01;;;;;;;6.40;2.55;;;14.20;49.10;;;;;;4861637;29;20460;-77
2023/04/04 13:16:36;;;;;;;4.25;2.40;;;14.30;46.10;;;;;;4862601;29;20045;-77
2023/04/04 13:19:03;;;;;;;8.77;2.63;;;14.20;46.70;;;;;;4853229;29;20063;-78
2023/04/04 13:21:29;;;;;;;8.65;2.60;;;14.10;47.30;;;;;;4863426;29;20038;-75
2023/04/04 13:23:55;;;;;;;6.13;1.73;;;14.10;47.60;;;;;;4862769;29;20433;-73
2023/04/04 13:26:22;;;;;;;6.97;2.22;;;14.10;47.90;;;;;;4863278;29;20089;-75
2023/04/04 13:28:47;;;;;;;9.18;2.70;;;14.10;48.10;;;;;;4862866;29;20053;-74
2023/04/04 13:31:14;;;;;;;9.75;2.33;;;14.10;48.30;;;;;;4863418;29;20053;-75
2023/04/04 13:33:41;;;;;;;7.82;1.98;;;14.10;48.70;;;;;;4862874;29;20058;-75
2023/04/04 13:36:07;;;;;;;7.05;2.13;;;14.20;49.10;;;;;;4862564;29;20196;-75
2023/04/04 13:38:33;;;;;;;8.75;1.80;;;14.20;49.30;;;;;;4863096;29;20057;-77
2023/04/04 13:40:59;;;;;;;9.40;1.80;;;14.20;49.70;;;;;;4862668;29;20080;-75
2023/04/04 13:43:26;;;;;;;6.60;1.75;;;14.20;50.00;;;;;;4861964;29;20124;-74
2023/04/04 13:45:54;;;;;;;7.82;1.75;;;14.20;50.30;;;;;;4862840;29;20057;-75
2023/04/04 13:48:20;;;;;;;2.58;1.20;;;14.20;50.60;;;;;;4863232;29;20079;-77
2023/04/04 13:50:50;;;;;;;5.45;1.85;;;14.20;50.80;;;;;;4862682;29;20057;-74
2023/04/04 13:53:16;;;;;;;5.85;1.25;;;14.10;51.00;;;;;;4863357;29;20330;-75
2023/04/04 13:55:42;;;;;;;4.50;1.23;;;14.20;51.40;;;;;;4862539;29;20045;-75
2023/04/04 13:58:08;;;;;;;9.95;1.70;;;14.10;51.50;;;;;;4862678;29;20066;-76
2023/04/04 14:00:34;;;;;;;5.25;1.25;;;14.10;51.70;;;;;;4861999;29;20093;-75
2023/04/04 14:03:00;;;;;;;4.47;1.20;;;14.10;52.00;;;;;;4862751;29;20072;-74
2023/04/04 14:05:26;;;;;;;3.88;1.00;;;14.10;52.20;;;;;;4846565;29;20453;-75
2023/04/04 14:07:51;;;;;;;2.78;0.70;;;14.10;52.40;;;;;;4862401;29;20044;-75
2023/04/04 14:10:17;;;;;;;4.70;1.15;;;14.10;52.60;;;;;;4862429;29;20395;-74
2023/04/04 14:12:43;;;;;;;4.32;1.02;;;14.10;52.90;;;;;;4862968;29;20148;-73
2023/04/04 14:15:10;;;;;;;4.55;1.08;;;14.10;53.10;;;;;;4862227;29;20532;-75
2023/04/04 14:17:36;;;;;;;4.78;1.25;;;14.00;53.30;;;;;;4862507;29;20438;-75
2023/04/04 14:20:02;;;;;;;48.65;6.57;;;14.00;53.30;;;;;;4861300;29;20053;-76
2023/04/04 14:22:28;;;;;;;16.77;2.75;;;14.10;53.50;;;;;;4862619;29;20430;-76
2023/04/04 14:24:54;;;;;;;17.90;3.00;;;14.10;53.90;;;;;;4862299;29;20069;-75
2023/04/04 14:27:20;;;;;;;14.10;3.15;;;14.10;54.20;;;;;;4845157;29;20453;-76
2023/04/04 14:29:46;;;;;;;15.57;3.00;;;14.10;54.80;;;;;;4861757;29;20045;-74
2023/04/04 14:32:11;;;;;;;9.45;2.50;;;14.10;55.50;;;;;;4845603;29;20057;-76
2023/04/04 14:34:37;;;;;;;12.48;2.53;;;14.20;55.70;;;;;;4863566;29;20365;-71
2023/04/04 14:37:03;;;;;;;20.80;2.72;;;14.20;55.50;;;;;;4865550;29;20053;-72
2023/04/04 14:39:29;;;;;;;22.83;2.63;;;14.20;55.10;;;;;;4866247;29;20046;-73
2023/04/04 14:41:55;;;;;;;14.52;2.85;;;14.20;55.60;;;;;;4865523;29;20041;-73
2023/04/04 14:44:21;;;;;;;17.42;3.80;;;14.20;54.80;;;;;;4849559;29;20047;-73
2023/04/04 14:46:50;;;;;;;13.55;2.95;;;14.20;54.50;;;;;;4865410;29;20053;-74
2023/04/04 14:49:16;;;;;;;6.78;2.90;;;14.20;53.80;;;;;;4865677;29;20050;-71
2023/04/04 14:51:42;;;;;;;9.30;3.40;;;14.20;53.50;;;;;;4865879;29;20068;-71
2023/04/04 14:54:08;;;;;;;10.75;3.28;;;14.20;53.00;;;;;;4865944;29;20082;-71
2023/04/04 14:56:35;;;;;;;8.13;3.17;;;14.20;52.30;;;;;;4860319;29;20469;-72
2023/04/04 14:59:02;;;;;;;23.15;5.20;;;14.20;51.80;;;;;;4866286;29;20066;-70
2023/04/04 15:01:28;;;;;;;14.38;4.20;;;14.20;51.50;;;;;;4865217;29;20381;-72
2023/04/04 15:03:55;;;;;;;15.93;3.33;;;14.20;51.30;;;;;;4865753;29;20041;-74
2023/04/04 15:06:20;;;;;;;14.45;4.45;;;14.20;50.80;;;;;;4865558;29;20374;-73
2023/04/04 15:08:46;;;;;;;27.40;5.82;;;14.20;51.60;;;;;;4865679;29;20064;-75
2023/04/04 15:11:12;;;;;;;20.75;4.95;;;14.20;54.70;;;;;;4864391;29;20436;-77
2023/04/04 15:13:38;;;;;;;18.45;4.00;;;14.20;56.50;;;;;;4845173;29;20053;-75
2023/04/04 15:16:04;;;;;;;25.63;4.13;;;14.30;55.00;;;;;;4865201;29;20042;-79
2023/04/04 15:18:30;;;;;;;19.02;3.83;;;14.40;54.50;;;;;;4848628;29;20128;-76
2023/04/04 15:20:57;;;;;;;25.38;4.38;;;14.50;55.40;;;;;;4865406;29;20142;-74
2023/04/04 15:23:23;;;;;;;31.27;4.60;;;14.70;55.80;;;;;;4865166;29;20398;-76
2023/04/04 15:25:48;;;;;;;21.42;4.28;;;14.80;56.30;;;;;;4865132;29;20054;-75
2023/04/04 15:28:14;;;;;;;36.75;4.20;;;14.90;56.90;;;;;;4865596;29;20057;-75
2023/04/04 15:30:40;;;;;;;31.30;4.07;;;14.90;57.70;;;;;;4865108;29;20387;-75
2023/04/04 15:33:06;;;;;;;23.75;3.40;;;15.00;58.70;;;;;;4865365;29;20205;-75
2023/04/04 15:35:32;;;;;;;19.52;3.33;;;15.10;59.30;;;;;;4864737;29;20045;-75
2023/04/04 15:37:57;;;;;;;18.92;3.33;;;15.10;59.70;;;;;;4865241;29;20343;-76
2023/04/04 15:40:23;;;;;;;22.42;3.75;;;15.10;59.90;;;;;;4864961;29;20060;-76
2023/04/04 15:42:50;;;;;;;25.25;4.00;;;15.10;60.40;;;;;;4864629;29;20197;-77
2023/04/04 15:45:15;;;;;;;20.08;2.90;;;15.10;60.70;;;;;;4864535;29;20046;-77
2023/04/04 15:47:42;;;;;;;25.92;4.18;;;15.10;60.80;;;;;;4864465;29;20060;-75
2023/04/04 15:50:09;;;;;;;27.40;3.63;;;15.20;61.60;;;;;;4848258;29;20049;-77
2023/04/04 15:52:35;;;;;;;17.77;3.38;;;15.20;61.20;;;;;;4864826;29;20063;-76
2023/04/04 15:55:02;;;;;;;26.75;3.33;;;15.20;61.30;;;;;;4864506;29;20045;-75
2023/04/04 15:57:28;;;;;;;24.55;3.35;;;15.20;61.40;;;;;;4864686;29;20050;-77
2023/04/04 15:59:53;;;;;;;21.20;3.40;;;15.20;61.60;;;;;;4864565;29;20080;-76
2023/04/04 16:02:19;;;;;;;23.80;3.05;;;15.20;61.70;;;;;;4864594;29;20120;-76
2023/04/04 16:04:45;;;;;;;33.35;4.45;;;15.20;61.80;;;;;;4864367;29;20049;-76
2023/04/04 16:07:11;;;;;;;19.52;2.42;;;15.20;62.10;;;;;;4848477;29;20061;-75
2023/04/04 16:09:36;;;;;;;36.00;3.85;;;15.20;62.20;;;;;;4862742;29;20046;-80
2023/04/04 16:12:02;;;;;;;32.95;4.50;;;15.20;62.20;;;;;;4864459;29;20041;-74
2023/04/04 16:14:28;;;;;;;40.88;5.55;;;15.20;62.20;;;;;;4864267;29;20437;-75
2023/04/04 16:16:54;;;;;;;28.15;3.88;;;15.30;62.30;;;;;;4864193;29;20056;-74
2023/04/04 16:19:19;;;;;;;29.48;3.83;;;15.30;62.20;;;;;;4864521;29;20049;-74
2023/04/04 16:21:48;;;;;;;38.47;5.10;;;15.30;62.40;;;;;;4864664;29;20137;-76
2023/04/04 16:24:14;;;;;;;24.17;4.18;;;15.30;62.40;;;;;;4864229;29;20050;-76
2023/04/04 16:26:46;;;;;;;22.67;3.58;;;15.30;62.40;;;;;;4863880;29;20124;-76
2023/04/04 16:29:13;;;;;;;29.15;4.03;;;15.30;62.50;;;;;;4863972;29;20080;-77
2023/04/04 16:31:39;;;;;;;24.35;4.07;;;15.30;62.70;;;;;;4864241;29;20136;-76
2023/04/04 16:34:05;;;;;;;24.45;3.75;;;15.30;62.90;;;;;;4863840;29;20065;-78
2023/04/04 16:36:31;;;;;;;26.40;4.00;;;15.30;63.10;;;;;;4863987;29;20372;-79
2023/04/04 16:38:58;;;;;;;23.65;4.25;;;15.30;63.40;;;;;;4846576;29;20053;-79
2023/04/04 16:41:25;;;;;;;21.92;3.72;;;15.20;63.60;;;;;;4863726;29;20373;-77
2023/04/04 16:43:51;;;;;;;40.33;4.50;;;15.20;63.80;;;;;;4863723;29;20045;-77
2023/04/04 16:46:20;;;;;;;28.52;3.75;;;15.20;63.80;;;;;;4863113;29;20494;-76
2023/04/04 16:48:46;;;;;;;31.65;3.63;;;15.20;63.80;;;;;;4874954;29;20053;-78
2023/04/04 16:51:12;;;;;;;33.97;4.15;;;15.20;64.00;;;;;;4878029;29;20045;-79
2023/04/04 16:53:38;;;;;;;19.90;3.88;;;15.20;64.00;;;;;;4846092;29;20121;-80
2023/04/04 16:56:04;;;;;;;37.05;3.78;;;15.20;64.20;;;;;;4860100;29;20050;-77
2023/04/04 16:58:31;;;;;;;27.88;4.53;;;15.20;64.10;;;;;;4862507;29;20075;-75
2023/04/04 17:00:57;;;;;;;28.05;3.95;;;15.20;64.20;;;;;;4863676;29;20453;-73
2023/04/04 17:03:22;;;;;;;26.35;4.35;;;15.20;64.50;;;;;;4863633;29;20089;-74
2023/04/04 18:28:45;;;;;;;5.22;1.17;;;14.70;61.40;;;;;;4877627;29;20084;-73
2023/04/04 18:31:11;;;;;;;6.60;1.35;;;14.60;61.90;;;;;;4880270;29;20080;-71
2023/04/04 18:33:37;;;;;;;8.77;1.35;;;14.70;62.20;;;;;;4881126;29;20061;-73
2023/04/04 18:36:03;;;;;;;7.30;1.35;;;14.70;62.60;;;;;;4881209;29;20092;-72
2023/04/04 18:38:29;;;;;;;6.13;1.50;;;14.70;62.90;;;;;;4881391;29;20045;-73
2023/04/04 18:40:55;;;;;;;7.93;1.38;;;14.70;63.00;;;;;;4880385;29;20360;-73
2023/04/04 18:43:23;;;;;;;6.97;1.45;;;14.70;63.20;;;;;;4880330;29;20048;-73
2023/04/04 18:45:48;;;;;;;7.35;1.33;;;14.60;63.20;;;;;;4880719;29;20093;-73
2023/04/04 18:48:14;;;;;;;7.88;1.65;;;14.60;63.40;;;;;;4880857;29;20075;-73
2023/04/04 18:50:40;;;;;;;4.93;1.13;;;14.60;63.40;;;;;;4880579;29;20041;-74
2023/04/04 18:53:06;;;;;;;5.32;1.27;;;14.60;63.40;;;;;;4880917;29;20045;-73
2023/04/04 18:55:32;;;;;;;7.95;1.13;;;14.60;63.50;;;;;;4880852;29;20049;-73
2023/04/04 18:57:58;;;;;;;8.50;1.60;;;14.60;63.50;;;;;;4880847;29;20049;-73
2023/04/04 19:00:24;;;;;;;9.25;1.50;;;14.60;63.50;;;;;;4895026;29;20044;-73
2023/04/04 19:02:50;;;;;;;7.07;1.50;;;14.60;63.40;;;;;;4883304;29;20045;-73
2023/04/04 19:05:22;;;;;;;4.50;1.38;;;14.60;63.30;;;;;;4880900;29;20060;-73
2023/04/04 19:07:51;;;;;;;8.00;1.90;;;14.50;63.00;;;;;;4880837;29;20052;-75
2023/04/04 19:10:17;;;;;;;11.32;2.17;;;14.50;62.60;;;;;;4880066;29;20076;-72
2023/04/04 19:12:42;;;;;;;17.85;2.28;;;14.60;62.90;;;;;;4878294;29;20037;-74
2023/04/04 19:15:08;;;;;;;12.88;2.10;;;14.60;62.00;;;;;;4880629;29;20072;-75
2023/04/04 19:17:34;;;;;;;5.05;1.38;;;14.50;61.60;;;;;;4880501;29;20068;-74
2023/04/04 19:20:00;;;;;;;9.15;1.65;;;14.50;61.50;;;;;;4881372;29;20045;-75
2023/04/04 19:22:26;;;;;;;5.63;1.42;;;14.50;61.60;;;;;;4883376;29;20088;-75
2023/04/04 19:24:52;;;;;;;6.15;1.20;;;14.50;61.80;;;;;;4883878;29;20128;-75
2023/04/04 19:27:17;;;;;;;7.43;1.58;;;14.50;62.00;;;;;;4883865;29;20056;-74
2023/04/04 19:29:44;;;;;;;4.60;1.38;;;14.50;62.10;;;;;;4883376;29;20053;-76
2023/04/04 19:32:16;;;;;;;8.43;1.27;;;14.50;62.40;;;;;;4883721;29;20049;-72
2023/04/04 19:34:42;;;;;;;3.97;1.10;;;14.50;62.70;;;;;;4884181;29;20084;-75
2023/04/04 19:37:12;;;;;;;4.78;0.90;;;14.50;63.00;;;;;;4867407;29;20080;-74
2023/04/04 19:39:40;;;;;;;5.40;1.17;;;14.50;63.20;;;;;;4883215;29;20452;-75
2023/04/04 19:42:07;;;;;;;7.55;0.90;;;14.50;63.50;;;;;;4883740;29;20092;-75
2023/04/04 19:44:34;;;;;;;6.07;1.10;;;14.50;63.40;;;;;;4879600;29;20444;-75
2023/04/04 19:47:00;;;;;;;3.17;0.80;;;14.50;63.60;;;;;;4874241;29;20064;-75
2023/04/04 19:49:32;;;;;;;5.90;1.00;;;14.50;63.60;;;;;;4883440;29;20044;-75
2023/04/04 19:51:59;;;;;;;3.03;1.17;;;14.50;63.60;;;;;;4883123;29;20140;-76
2023/04/04 19:54:27;;;;;;;2.80;0.60;;;14.50;63.50;;;;;;4883272;29;20073;-75
2023/04/04 19:57:02;;;;;;;4.07;0.65;;;14.50;63.50;;;;;;4883376;29;20056;-75
2023/04/04 19:59:46;;;;;;;2.55;0.70;;;14.50;63.50;;;;;;4883471;29;20053;-75
2023/04/04 20:02:31;;;;;;;3.22;0.88;;;14.50;63.50;;;;;;4883408;29;20445;-75
2023/04/04 20:04:57;;;;;;;2.15;0.75;;;14.40;63.50;;;;;;4882994;29;20105;-75
2023/04/04 20:07:24;;;;;;;2.45;0.57;;;14.40;63.40;;;;;;4883618;29;20049;-75